createdAt,value
2023-03-29T00:00:14.222Z,99.90
2023-03-29T00:02:42.078Z,99.90
2023-03-29T00:05:09.744Z,99.80
2023-03-29T00:07:36.888Z,99.90
2023-03-29T00:10:04.849Z,99.90
2023-03-29T00:12:32.021Z,99.90
2023-03-29T00:14:58.967Z,99.90
2023-03-29T00:17:26.126Z,99.90
2023-03-29T00:19:53.054Z,99.90
2023-03-29T00:22:20.034Z,99.90
2023-03-29T00:24:49.185Z,99.90
2023-03-29T00:27:16.715Z,99.90
2023-03-29T00:29:43.723Z,99.90
2023-03-29T00:32:10.770Z,99.90
2023-03-29T00:34:37.773Z,99.90
2023-03-29T00:37:08.866Z,99.90
2023-03-29T00:39:37.017Z,99.90
2023-03-29T00:42:04.139Z,99.90
2023-03-29T00:44:53.068Z,99.90
2023-03-29T00:47:33.167Z,99.90
2023-03-29T00:50:01.843Z,99.90
2023-03-29T00:52:30.460Z,99.90
2023-03-29T00:54:58.876Z,99.90
2023-03-29T00:57:27.651Z,99.90
2023-03-29T00:59:54.814Z,99.90
2023-03-29T01:02:22.599Z,99.90
2023-03-29T01:04:58.778Z,99.90
2023-03-29T01:07:31.064Z,99.90
2023-03-29T01:10:16.416Z,99.90
2023-03-29T01:12:51.875Z,99.90
2023-03-29T01:15:21.354Z,99.90
2023-03-29T01:17:50.963Z,99.90
2023-03-29T01:20:25.258Z,99.90
2023-03-29T01:23:27.444Z,99.90
2023-03-29T01:26:10.985Z,99.90
2023-03-29T01:28:40.479Z,99.90
2023-03-29T01:31:17.344Z,99.90
2023-03-29T01:33:46.855Z,99.90
2023-03-29T01:36:37.303Z,99.90
2023-03-29T01:39:06.141Z,99.90
2023-03-29T01:41:52.160Z,99.90
2023-03-29T01:44:21.543Z,99.90
2023-03-29T01:46:52.561Z,99.90
2023-03-29T01:50:21.202Z,99.90
2023-03-29T01:52:56.816Z,99.90
2023-03-29T01:55:38.545Z,99.90
2023-03-29T01:58:05.995Z,99.90
2023-03-29T02:00:34.242Z,99.90
2023-03-29T02:03:03.412Z,99.90
2023-03-29T02:05:31.686Z,99.90
2023-03-29T02:08:00.380Z,99.90
2023-03-29T02:10:27.952Z,99.90
2023-03-29T02:12:54.979Z,99.90
2023-03-29T02:15:23.722Z,99.90
2023-03-29T02:17:51.168Z,99.90
2023-03-29T02:20:23.723Z,99.90
2023-03-29T02:23:02.458Z,99.90
2023-03-29T02:25:29.716Z,99.90
2023-03-29T02:27:56.740Z,99.90
2023-03-29T02:30:24.172Z,99.90
2023-03-29T02:33:05.108Z,99.90
2023-03-29T02:35:35.177Z,99.90
2023-03-29T02:38:07.544Z,99.90
2023-03-29T02:40:34.938Z,99.90
2023-03-29T02:43:03.923Z,99.90
2023-03-29T02:45:30.970Z,99.90
2023-03-29T02:47:59.693Z,99.90
2023-03-29T02:50:28.513Z,99.90
2023-03-29T02:53:01.907Z,99.90
2023-03-29T02:55:35.026Z,99.90
2023-03-29T02:58:08.490Z,99.90
2023-03-29T03:00:38.482Z,99.90
2023-03-29T03:03:06.555Z,99.90
2023-03-29T03:05:33.782Z,99.90
2023-03-29T03:08:00.888Z,99.90
2023-03-29T03:10:28.033Z,99.90
2023-03-29T03:12:55.077Z,99.90
2023-03-29T03:15:22.270Z,99.90
2023-03-29T03:17:49.505Z,99.90
2023-03-29T03:20:17.043Z,99.90
2023-03-29T03:22:49.091Z,99.90
2023-03-29T03:25:19.587Z,99.90
2023-03-29T03:27:49.282Z,99.90
2023-03-29T03:30:18.039Z,99.90
2023-03-29T03:33:03.888Z,99.90
2023-03-29T03:35:49.542Z,99.90
2023-03-29T03:38:17.600Z,99.90
2023-03-29T03:40:54.221Z,99.90
2023-03-29T03:43:21.602Z,99.90
2023-03-29T03:45:49.865Z,99.90
2023-03-29T03:48:20.263Z,99.90
2023-03-29T03:50:53.821Z,99.90
2023-03-29T03:53:21.550Z,99.90
2023-03-29T03:56:11.653Z,99.90
2023-03-29T03:58:55.823Z,99.90
2023-03-29T04:01:24.165Z,99.90
2023-03-29T04:04:01.780Z,99.90
2023-03-29T04:06:30.747Z,99.90
2023-03-29T04:09:26.564Z,99.90
2023-03-29T04:12:08.097Z,99.90
2023-03-29T04:14:35.846Z,99.90
2023-03-29T04:17:06.225Z,99.90
2023-03-29T04:19:47.790Z,99.90
2023-03-29T04:22:14.816Z,99.90
2023-03-29T04:24:42.739Z,99.90
2023-03-29T04:27:29.662Z,99.90
2023-03-29T04:29:58.125Z,99.90
2023-03-29T04:32:47.992Z,99.90
2023-03-29T04:35:16.993Z,99.90
2023-03-29T04:37:44.527Z,99.90
2023-03-29T04:40:15.070Z,99.90
2023-03-29T04:43:05.402Z,99.90
2023-03-29T04:45:32.790Z,99.90
2023-03-29T04:48:09.191Z,99.90
2023-03-29T04:50:38.930Z,99.90
2023-03-29T04:53:07.598Z,99.90
2023-03-29T04:55:34.665Z,99.90
2023-03-29T04:58:03.013Z,99.90
2023-03-29T05:00:33.481Z,99.90
2023-03-29T05:03:07.781Z,99.90
2023-03-29T05:05:39.375Z,99.90
2023-03-29T05:08:07.563Z,99.90
2023-03-29T05:10:44.382Z,99.90
2023-03-29T05:13:12.613Z,99.90
2023-03-29T05:15:41.810Z,99.90
2023-03-29T05:18:09.927Z,99.90
2023-03-29T05:20:37.940Z,99.90
2023-03-29T05:23:05.278Z,99.90
2023-03-29T05:26:01.373Z,99.90
2023-03-29T05:28:28.497Z,99.90
2023-03-29T05:31:04.758Z,99.90
2023-03-29T05:33:34.768Z,99.90
2023-03-29T05:36:08.122Z,99.90
2023-03-29T05:38:39.296Z,99.90
2023-03-29T05:41:06.647Z,99.90
2023-03-29T05:43:59.424Z,99.90
2023-03-29T05:46:27.179Z,99.90
2023-03-29T05:48:57.480Z,99.90
2023-03-29T05:51:39.321Z,99.90
2023-03-29T05:54:06.522Z,99.90
2023-03-29T05:56:34.049Z,99.90
2023-03-29T05:59:02.321Z,99.90
2023-03-29T06:01:30.075Z,99.90
2023-03-29T06:04:02.210Z,99.90
2023-03-29T06:06:49.598Z,99.90
2023-03-29T06:09:16.962Z,99.90
2023-03-29T06:12:04.264Z,99.90
2023-03-29T06:14:48.387Z,99.90
2023-03-29T06:17:25.336Z,99.90
2023-03-29T06:19:53.659Z,99.90
2023-03-29T06:22:24.732Z,99.90
2023-03-29T06:24:52.332Z,99.90
2023-03-29T06:27:25.631Z,99.90
2023-03-29T06:29:54.248Z,99.90
2023-03-29T06:32:21.303Z,99.90
2023-03-29T06:34:57.530Z,99.90
2023-03-29T06:37:32.909Z,99.90
2023-03-29T06:40:27.595Z,99.90
2023-03-29T06:42:58.081Z,99.90
2023-03-29T06:45:44.741Z,99.90
2023-03-29T06:48:28.532Z,99.90
2023-03-29T06:50:55.675Z,99.90
2023-03-29T06:53:26.479Z,99.90
2023-03-29T06:55:59.866Z,99.90
2023-03-29T06:58:41.010Z,99.90
2023-03-29T07:01:22.068Z,99.90
2023-03-29T07:03:55.004Z,99.90
2023-03-29T07:06:29.067Z,99.90
2023-03-29T07:08:59.905Z,99.90
2023-03-29T07:11:41.866Z,99.90
2023-03-29T07:14:19.662Z,99.60
2023-03-29T07:16:47.414Z,99.60
2023-03-29T07:19:30.363Z,99.60
2023-03-29T07:22:21.266Z,99.50
2023-03-29T07:24:55.604Z,99.60
2023-03-29T07:27:22.944Z,99.70
2023-03-29T07:29:50.237Z,99.60
2023-03-29T07:32:18.717Z,99.60
2023-03-29T07:34:46.589Z,99.80
2023-03-29T07:37:32.366Z,99.90
2023-03-29T07:40:01.575Z,99.90
2023-03-29T07:42:52.844Z,99.80
2023-03-29T07:45:26.887Z,99.90
2023-03-29T07:48:14.809Z,99.80
2023-03-29T07:51:02.422Z,99.90
2023-03-29T07:53:35.621Z,99.60
2023-03-29T07:56:05.759Z,99.40
2023-03-29T07:59:00.846Z,99.40
2023-03-29T08:01:28.190Z,99.30
2023-03-29T08:04:05.490Z,99.20
2023-03-29T08:06:55.525Z,99.10
2023-03-29T08:09:28.364Z,99.20
2023-03-29T08:11:55.518Z,99.00
2023-03-29T08:14:28.953Z,99.10
2023-03-29T08:17:01.559Z,99.20
2023-03-29T08:19:30.828Z,99.30
2023-03-29T08:22:06.054Z,99.40
2023-03-29T08:25:02.891Z,99.20
2023-03-29T08:27:34.648Z,99.30
2023-03-29T08:30:02.841Z,99.40
2023-03-29T08:32:32.087Z,99.40
2023-03-29T08:34:59.448Z,99.50
2023-03-29T08:37:36.544Z,99.40
2023-03-29T08:40:04.532Z,99.60
2023-03-29T08:42:55.471Z,99.40
2023-03-29T08:45:30.336Z,99.30
2023-03-29T08:47:59.958Z,99.30
2023-03-29T08:50:36.758Z,99.30
2023-03-29T08:53:19.119Z,99.40
2023-03-29T08:56:15.562Z,99.60
2023-03-29T08:59:01.246Z,99.70
2023-03-29T09:01:35.667Z,99.80
2023-03-29T09:04:14.997Z,99.70
2023-03-29T09:06:58.406Z,99.90
2023-03-29T09:09:34.992Z,99.80
2023-03-29T09:12:36.500Z,99.70
2023-03-29T09:15:08.817Z,99.70
2023-03-29T09:17:49.553Z,99.70
2023-03-29T09:20:30.669Z,99.70
2023-03-29T09:23:02.524Z,99.90
2023-03-29T09:25:54.300Z,99.50
2023-03-29T09:28:38.400Z,99.60
2023-03-29T09:31:16.958Z,99.60
2023-03-29T09:33:50.717Z,99.70
2023-03-29T09:36:32.234Z,99.80
2023-03-29T09:38:59.344Z,99.40
2023-03-29T09:41:52.853Z,99.50
2023-03-29T09:44:30.993Z,99.40
2023-03-29T09:47:24.142Z,99.30
2023-03-29T09:49:52.681Z,99.20
2023-03-29T09:52:21.112Z,99.10
2023-03-29T09:55:03.793Z,99.20
2023-03-29T09:58:14.284Z,98.90
2023-03-29T10:00:46.176Z,99.10
2023-03-29T10:03:24.363Z,99.10
2023-03-29T10:06:02.878Z,99.00
2023-03-29T10:08:31.721Z,99.30
2023-03-29T10:11:00.415Z,99.00
2023-03-29T10:13:32.419Z,99.00
2023-03-29T10:16:09.438Z,99.10
2023-03-29T10:18:41.835Z,98.90
2023-03-29T10:21:12.112Z,99.20
2023-03-29T10:23:39.133Z,99.00
2023-03-29T10:26:09.366Z,98.90
2023-03-29T10:28:36.673Z,98.90
2023-03-29T10:31:06.142Z,98.90
2023-03-29T10:33:36.543Z,99.00
2023-03-29T10:36:05.265Z,99.20
2023-03-29T10:38:32.334Z,99.30
2023-03-29T10:41:12.386Z,99.20
2023-03-29T10:43:43.910Z,99.60
2023-03-29T10:46:15.323Z,99.80
2023-03-29T10:48:46.507Z,99.70
2023-03-29T10:51:14.367Z,99.90
2023-03-29T10:53:41.401Z,99.90
2023-03-29T10:56:20.486Z,99.90
2023-03-29T10:58:50.262Z,99.90
2023-03-29T11:01:20.232Z,99.90
2023-03-29T11:04:02.670Z,99.90
2023-03-29T11:06:44.917Z,99.90
2023-03-29T11:09:53.715Z,99.90
2023-03-29T11:12:47.175Z,99.90
2023-03-29T11:15:51.430Z,99.90
2023-03-29T11:18:42.962Z,99.90
2023-03-29T11:21:16.559Z,99.90
2023-03-29T11:23:50.981Z,99.90
2023-03-29T11:26:34.136Z,99.90
2023-03-29T11:29:07.310Z,99.90
2023-03-29T11:31:55.372Z,99.90
2023-03-29T11:34:59.897Z,99.90
2023-03-29T11:37:57.181Z,99.90
2023-03-29T11:40:53.832Z,99.90
2023-03-29T11:43:25.548Z,99.90
2023-03-29T11:45:54.969Z,99.90
2023-03-29T11:48:25.125Z,99.90
2023-03-29T11:51:21.748Z,99.90
2023-03-29T11:54:25.818Z,99.90
2023-03-29T11:56:57.674Z,99.90
2023-03-29T11:59:36.578Z,99.90
2023-03-29T12:02:37.263Z,99.90
2023-03-29T12:05:12.867Z,99.90
2023-03-29T12:07:46.813Z,99.90
2023-03-29T12:10:17.917Z,99.90
2023-03-29T12:13:10.691Z,99.90
2023-03-29T12:15:41.539Z,99.90
2023-03-29T12:18:35.895Z,99.90
2023-03-29T12:21:04.018Z,99.90
2023-03-29T12:23:33.797Z,99.90
2023-03-29T12:26:22.321Z,99.70
2023-03-29T12:29:07.317Z,98.90
2023-03-29T12:31:58.563Z,98.70
2023-03-29T12:34:44.935Z,97.90
2023-03-29T12:37:56.782Z,97.30
2023-03-29T12:40:44.557Z,96.50
2023-03-29T12:43:43.583Z,96.40
2023-03-29T12:46:33.753Z,95.80
2023-03-29T12:49:15.423Z,96.40
2023-03-29T12:51:42.531Z,96.10
2023-03-29T12:54:20.339Z,96.50
2023-03-29T12:56:56.383Z,96.50
2023-03-29T12:59:23.370Z,96.20
2023-03-29T13:02:14.285Z,96.30
2023-03-29T13:04:44.230Z,95.00
2023-03-29T13:07:14.941Z,94.50
2023-03-29T13:09:52.377Z,95.50
2023-03-29T13:12:39.608Z,94.50
2023-03-29T13:15:08.400Z,95.30
2023-03-29T13:17:48.862Z,95.00
2023-03-29T13:20:46.072Z,94.40
2023-03-29T13:23:46.816Z,94.50
2023-03-29T13:26:52.430Z,94.30
2023-03-29T13:29:48.121Z,94.50
2023-03-29T13:32:29.606Z,93.90
2023-03-29T13:35:04.246Z,93.50
2023-03-29T13:37:52.301Z,93.70
2023-03-29T13:40:32.428Z,93.40
2023-03-29T13:43:29.342Z,93.60
2023-03-29T13:45:59.374Z,93.70
2023-03-29T13:48:36.046Z,93.40
2023-03-29T13:51:33.103Z,92.40
2023-03-29T13:54:11.568Z,92.20
2023-03-29T13:56:59.366Z,92.50
2023-03-29T13:59:43.169Z,92.10
2023-03-29T14:02:21.362Z,92.10
2023-03-29T14:04:49.995Z,91.90
2023-03-29T14:07:17.109Z,91.00
2023-03-29T14:09:46.021Z,91.60
2023-03-29T14:12:14.288Z,90.60
2023-03-29T14:14:56.039Z,88.70
2023-03-29T14:17:25.901Z,90.10
2023-03-29T14:19:53.284Z,90.80
2023-03-29T14:22:20.951Z,89.10
2023-03-29T14:24:54.514Z,90.30
2023-03-29T14:27:22.217Z,91.00
2023-03-29T14:29:51.246Z,91.00
2023-03-29T14:32:19.866Z,91.10
2023-03-29T14:34:50.385Z,90.40
2023-03-29T14:37:26.385Z,90.90
2023-03-29T14:39:53.536Z,90.30
2023-03-29T14:42:23.836Z,90.10
2023-03-29T14:44:50.878Z,90.10
2023-03-29T14:47:30.414Z,85.20
2023-03-29T14:50:00.729Z,89.00
2023-03-29T14:52:28.659Z,86.80
2023-03-29T14:54:59.520Z,83.40
2023-03-29T14:57:29.452Z,85.70
2023-03-29T15:00:00.661Z,88.00
2023-03-29T15:02:32.475Z,81.70
2023-03-29T15:05:03.494Z,86.00
2023-03-29T15:07:31.268Z,83.80
2023-03-29T15:09:58.802Z,82.00
2023-03-29T15:12:28.660Z,82.40
2023-03-29T15:14:55.767Z,78.30
2023-03-29T15:17:49.371Z,85.40
2023-03-29T15:20:28.713Z,78.40
2023-03-29T15:23:08.772Z,79.90
2023-03-29T15:25:46.146Z,83.00
2023-03-29T15:28:33.938Z,81.60
2023-03-29T15:33:37.610Z,84.70
2023-03-29T15:36:06.085Z,84.90
2023-03-29T15:38:43.159Z,84.10
2023-03-29T15:41:11.369Z,86.70
2023-03-29T15:43:38.305Z,84.60
2023-03-29T15:46:05.516Z,86.80
2023-03-29T15:48:33.961Z,86.50
2023-03-29T15:51:06.198Z,84.70
2023-03-29T15:53:34.067Z,87.50
2023-03-29T15:56:02.396Z,85.10
2023-03-29T15:58:31.737Z,84.10
2023-03-29T16:01:11.344Z,84.30
2023-03-29T16:03:39.398Z,86.20
2023-03-29T16:06:06.827Z,88.10
2023-03-29T16:08:33.875Z,86.00
2023-03-29T16:11:00.923Z,87.60
2023-03-29T16:13:27.898Z,87.10
2023-03-29T16:15:55.019Z,85.20
2023-03-29T16:18:22.262Z,86.90
2023-03-29T16:20:49.255Z,87.60
2023-03-29T16:23:16.652Z,87.40
2023-03-29T16:25:43.710Z,88.60
2023-03-29T16:28:10.821Z,88.60
2023-03-29T16:30:38.462Z,87.20
2023-03-29T16:33:08.818Z,87.10
2023-03-29T16:35:38.101Z,88.00
2023-03-29T16:38:05.168Z,88.80
2023-03-29T16:40:33.450Z,86.90
2023-03-29T16:43:00.724Z,87.50
2023-03-29T16:45:27.911Z,87.80
2023-03-29T16:47:55.862Z,87.60
2023-03-29T16:50:23.386Z,87.70
2023-03-29T16:52:52.735Z,88.20
2023-03-29T16:55:19.860Z,86.90
2023-03-29T16:57:47.434Z,89.50
2023-03-29T17:00:16.360Z,89.30
2023-03-29T17:02:43.910Z,87.50
2023-03-29T17:05:11.953Z,89.00
2023-03-29T17:07:42.500Z,88.20
2023-03-29T17:10:13.626Z,88.70
2023-03-29T17:12:40.694Z,89.10
2023-03-29T17:15:08.134Z,89.40
2023-03-29T17:17:35.469Z,89.30
2023-03-29T17:20:02.435Z,89.20
2023-03-29T17:22:29.415Z,89.80
2023-03-29T17:24:56.392Z,90.10
2023-03-29T17:27:23.473Z,90.10
2023-03-29T17:29:50.451Z,90.20
2023-03-29T17:32:17.513Z,90.50
2023-03-29T17:34:44.472Z,90.50
2023-03-29T17:37:11.490Z,90.70
2023-03-29T17:39:38.426Z,90.70
2023-03-29T17:42:05.744Z,90.90
2023-03-29T17:44:33.489Z,90.90
2023-03-29T17:47:01.221Z,91.20
2023-03-29T17:49:28.422Z,91.80
2023-03-29T17:51:55.600Z,92.30
2023-03-29T17:54:22.570Z,94.00
2023-03-29T17:56:50.632Z,93.60
2023-03-29T17:59:17.862Z,94.30
2023-03-29T18:01:44.928Z,95.10
2023-03-29T18:04:11.990Z,95.00
2023-03-29T18:06:39.045Z,95.30
2023-03-29T18:09:06.280Z,95.70
2023-03-29T18:11:33.350Z,96.40
2023-03-29T18:14:01.071Z,96.20
2023-03-29T18:16:28.235Z,96.80
2023-03-29T18:18:55.204Z,96.70
2023-03-29T18:21:22.245Z,96.70
2023-03-29T18:23:49.491Z,96.80
2023-03-29T18:26:16.562Z,96.80
2023-03-29T18:28:46.757Z,97.00
2023-03-29T18:31:14.054Z,97.20
2023-03-29T18:33:41.021Z,97.00
2023-03-29T18:36:11.888Z,97.30
2023-03-29T18:38:40.759Z,97.60
2023-03-29T18:41:08.745Z,97.70
2023-03-29T18:43:36.060Z,97.70
2023-03-29T18:46:03.405Z,97.80
2023-03-29T18:48:30.651Z,98.20
2023-03-29T18:50:57.957Z,98.20
2023-03-29T18:53:25.185Z,98.40
2023-03-29T18:55:52.212Z,98.30
2023-03-29T18:58:22.943Z,98.40
2023-03-29T19:00:50.004Z,98.60
2023-03-29T19:03:17.195Z,98.80
2023-03-29T19:05:44.303Z,99.00
2023-03-29T19:08:11.338Z,99.20
2023-03-29T19:10:38.934Z,99.60
2023-03-29T19:13:06.279Z,99.40
2023-03-29T19:15:34.904Z,99.50
2023-03-29T19:18:02.006Z,99.50
2023-03-29T19:20:29.607Z,99.70
2023-03-29T19:22:56.699Z,99.50
2023-03-29T19:25:23.724Z,99.90
2023-03-29T19:27:50.683Z,99.90
2023-03-29T19:30:18.490Z,99.80
2023-03-29T19:32:45.719Z,99.90
2023-03-29T19:35:13.455Z,99.90
2023-03-29T19:37:41.079Z,99.90
2023-03-29T19:40:11.144Z,99.80
2023-03-29T19:42:38.623Z,99.90
2023-03-29T19:45:06.409Z,99.50
2023-03-29T19:47:33.762Z,99.90
2023-03-29T19:50:01.188Z,99.90
2023-03-29T19:52:28.560Z,99.90
2023-03-29T19:54:56.787Z,99.90
2023-03-29T19:57:24.079Z,99.90
2023-03-29T19:59:53.203Z,99.90
2023-03-29T20:02:20.191Z,99.90
2023-03-29T20:04:47.206Z,99.90
2023-03-29T20:07:14.213Z,99.90
2023-03-29T20:09:44.625Z,99.90
2023-03-29T20:12:12.255Z,99.90
2023-03-29T20:14:40.458Z,99.90
2023-03-29T20:17:07.801Z,99.90
2023-03-29T20:19:36.781Z,99.90
2023-03-29T20:22:04.367Z,99.90
2023-03-29T20:24:32.785Z,99.90
2023-03-29T20:26:59.823Z,99.90
2023-03-29T20:29:27.884Z,99.90
2023-03-29T20:31:54.907Z,99.90
2023-03-29T20:34:22.558Z,99.90
2023-03-29T20:36:49.628Z,99.90
2023-03-29T20:39:19.864Z,99.90
2023-03-29T20:41:47.968Z,99.90
2023-03-29T20:44:17.000Z,99.90
2023-03-29T20:46:54.720Z,99.90
2023-03-29T20:49:26.694Z,99.90
2023-03-29T20:51:59.676Z,99.90
2023-03-29T20:54:26.829Z,99.90
2023-03-29T20:56:54.965Z,99.90
2023-03-29T20:59:23.062Z,99.90
2023-03-29T21:01:50.530Z,99.90
2023-03-29T21:04:17.732Z,99.90
2023-03-29T21:06:46.330Z,99.90
2023-03-29T21:09:13.831Z,99.90
2023-03-29T21:11:41.072Z,99.90
2023-03-29T21:14:09.523Z,99.90
2023-03-29T21:16:36.584Z,99.90
2023-03-29T21:19:03.594Z,99.90
2023-03-29T21:21:33.814Z,99.90
2023-03-29T21:24:00.932Z,99.90
2023-03-29T21:26:28.203Z,99.90
2023-03-29T21:28:55.456Z,99.90
2023-03-29T21:31:22.462Z,99.90
2023-03-29T21:33:49.546Z,99.90
2023-03-29T21:36:16.584Z,99.90
2023-03-29T21:38:43.624Z,99.90
2023-03-29T21:41:12.169Z,99.90
2023-03-29T21:43:39.654Z,99.90
2023-03-29T21:46:07.072Z,99.90
2023-03-29T21:48:34.154Z,99.90
2023-03-29T21:51:01.259Z,99.90
2023-03-29T21:53:28.409Z,99.90
2023-03-29T21:55:55.442Z,99.90
2023-03-29T21:58:22.538Z,99.90
2023-03-29T22:00:49.526Z,99.90
2023-03-29T22:03:16.895Z,99.90
2023-03-29T22:05:44.616Z,99.90
2023-03-29T22:08:11.909Z,99.90
2023-03-29T22:10:41.512Z,99.90
2023-03-29T22:13:09.413Z,99.90
2023-03-29T22:15:36.400Z,99.90
2023-03-29T22:18:03.944Z,99.90
2023-03-29T22:20:31.015Z,99.90
2023-03-29T22:22:58.011Z,99.90
2023-03-29T22:25:25.012Z,99.90
2023-03-29T22:27:52.031Z,99.90
2023-03-29T22:30:19.211Z,99.90
2023-03-29T22:32:46.556Z,99.90
2023-03-29T22:35:13.731Z,99.90
2023-03-29T22:37:42.185Z,99.90
2023-03-29T22:40:10.919Z,99.90
2023-03-29T22:42:37.986Z,99.90
2023-03-29T22:45:05.505Z,99.90
2023-03-29T22:47:32.497Z,99.80
2023-03-29T22:49:59.475Z,99.90
2023-03-29T22:52:26.425Z,99.90
2023-03-29T22:54:53.394Z,99.90
2023-03-29T22:57:20.407Z,99.90
2023-03-29T22:59:47.488Z,99.90
2023-03-29T23:02:14.529Z,99.90
2023-03-29T23:04:42.489Z,99.90
2023-03-29T23:07:09.606Z,99.90
2023-03-29T23:09:36.787Z,99.90
2023-03-29T23:12:03.807Z,99.90
2023-03-29T23:14:31.067Z,99.90
2023-03-29T23:16:58.399Z,99.90
2023-03-29T23:19:25.313Z,99.60
2023-03-29T23:21:52.872Z,99.90
2023-03-29T23:24:19.857Z,99.90
2023-03-29T23:26:49.142Z,99.80
2023-03-29T23:29:16.059Z,99.80
2023-03-29T23:31:44.548Z,99.90
2023-03-29T23:34:13.591Z,99.90
2023-03-29T23:36:40.611Z,99.90
2023-03-29T23:39:08.163Z,99.90
2023-03-29T23:41:35.188Z,99.90
2023-03-29T23:44:03.798Z,99.90
2023-03-29T23:46:31.587Z,99.90
2023-03-29T23:48:58.597Z,99.90
2023-03-29T23:51:28.460Z,99.90
2023-03-29T23:53:55.974Z,99.80
2023-03-29T23:56:23.345Z,99.90
2023-03-29T23:58:50.426Z,99.80
